Latest Weather Observations for Frankston (Ballam Park)

IDV60801

Issued at 6:52 pm EST Wednesday 18 May 2022 (issued every 10 minutes, with the page automatically refreshed every 10 minutes)

About weather observations | Map of weather stations | Latest weather observations for VIC | Other Formats
Station Details ID: 086388 Name: FRANKSTON (BALLAM PARK) Lat: -38.15 Lon: 145.16 Height: 58.47 m
Data from the previous 72 hours. | See also: Recent months at Frankston (Ballam Park)
Date/Time
EST
Temp
°C
App
Temp
°C
Dew
Point
°C
Rel
Hum
%
Delta-T
°C
Wind Press
QNH
hPa
Press
MSL
hPa
Rain since
9am
mm
Dir  Spd
km/h
Gust
km/h
Spd
kts
Gust
kts
18/06:30pm 12.4 9.9 6.7 68 2.7 W 9 22 5 12 1021.6 1021.6 0.0
18/06:00pm 12.3 10.5 7.2 71 2.5 WNW 6 11 3 6 1021.6 1021.6 0.0
18/05:30pm 12.1 10.8 7.6 74 2.2 WSW 4 15 2 8 1021.2 1021.2 0.0
18/05:00pm 11.5 9.9 8.0 79 1.7 WNW 6 9 3 5 1020.9 1020.9 0.0
18/04:30pm 11.9 10.1 7.8 76 2.0 WNW 7 17 4 9 1020.7 1020.7 0.0
18/04:00pm 12.2 9.4 8.5 78 1.8 WNW 13 20 7 11 1020.4 1020.4 0.0
18/03:30pm 12.9 9.9 7.8 71 2.5 WNW 13 24 7 13 1020.1 1020.1 0.0
18/03:00pm 13.7 10.3 7.5 66 3.0 WNW 15 26 8 14 1019.8 1019.8 0.0
18/02:30pm 13.4 10.2 7.0 65 3.1 W 13 26 7 14 1019.5 1019.5 0.0
18/02:00pm 13.1 9.9 6.9 66 3.0 WNW 13 26 7 14 1019.2 1019.2 0.0
18/01:30pm 13.6 9.3 6.9 64 3.3 WNW 19 39 10 21 1019.1 1019.1 0.0
18/01:00pm 14.1 10.2 7.2 63 3.4 WNW 17 30 9 16 1019.1 1019.1 0.0
18/12:30pm 14.0 10.3 7.8 66 3.1 WNW 17 33 9 18 1019.2 1019.2 0.0
18/12:00pm 13.7 10.0 8.1 69 2.8 WNW 17 32 9 17 1019.4 1019.4 0.0
18/11:30am 13.5 9.8 7.9 69 2.8 WNW 17 37 9 20 1019.6 1019.6 0.0
18/11:00am 13.1 8.9 7.5 69 2.7 WNW 19 32 10 17 1019.5 1019.5 0.0
18/10:30am 12.9 8.8 7.8 71 2.5 WNW 19 33 10 18 1019.4 1019.4 0.0
18/10:00am 13.0 9.5 8.7 75 2.2 WNW 17 32 9 17 1019.4 1019.4 0.0
18/09:30am 11.9 7.6 7.0 72 2.4 WNW 19 33 10 18 1019.4 1019.4 0.0
18/09:00am 11.6 7.7 7.3 75 2.1 WNW 17 32 9 17 1019.0 1019.0 0.4
18/08:30am 11.5 7.7 7.6 77 1.9 WNW 17 33 9 18 1018.6 1018.6 0.4
18/08:00am 11.2 7.3 7.1 76 2.0 WNW 17 30 9 16 1018.1 1018.1 0.4
18/07:30am 11.0 7.6 7.7 80 1.6 WNW 15 37 8 20 1017.6 1017.6 0.4
18/07:00am 11.0 7.6 7.7 80 1.6 WNW 15 28 8 15 1017.4 1017.4 0.4
18/06:30am 11.3 7.6 7.8 79 1.7 WNW 17 35 9 19 1017.1 1017.1 0.4
18/06:00am 11.5 7.9 8.2 80 1.6 WNW 17 30 9 16 1017.0 1017.0 0.4
18/05:30am 11.7 7.7 8.2 79 1.7 WNW 19 35 10 19 1016.5 1016.5 0.4
18/05:00am 11.7 8.4 8.2 79 1.7 WNW 15 30 8 16 1016.1 1016.1 0.4
18/04:30am 11.8 8.1 8.1 78 1.8 WNW 17 32 9 17 1015.9 1015.9 0.4
18/04:00am 11.7 8.4 8.0 78 1.8 WNW 15 33 8 18 1015.8 1015.8 0.4
18/03:30am 11.7 8.0 8.0 78 1.8 WNW 17 33 9 18 1015.6 1015.6 0.4
18/03:00am 12.0 8.1 8.5 79 1.7 WNW 19 37 10 20 1015.7 1015.7 0.2
18/02:30am 12.0 8.1 8.5 79 1.7 NW 19 33 10 18 1015.6 1015.6 0.0
18/02:00am 11.0 8.0 9.3 89 0.9 NW 15 26 8 14 1015.6 1015.6 0.0
18/01:30am 11.9 7.7 8.2 78 1.8 NW 20 37 11 20 1015.7 1015.7 0.0
18/01:00am 12.1 8.9 8.6 79 1.7 NW 15 24 8 13 1015.9 1015.9 0.0
18/12:30am 12.7 9.0 7.8 72 2.4 NNW 17 35 9 19 1015.8 1015.8 0.0
18/12:00am 12.0 8.7 8.1 77 1.9 NNW 15 26 8 14 1016.0 1016.0 0.0
 
Date/Time
EST
Temp
°C
App
Temp
°C
Dew
Point
°C
Rel
Hum
%
Delta-T
°C
Wind Press
QNH
hPa
Press
MSL
hPa
Rain since
9am
mm
Dir  Spd
km/h
Gust
km/h
Spd
kts
Gust
kts
17/11:30pm 12.6 9.2 7.5 71 2.5 NNW 15 26 8 14 1016.3 1016.3 0.0
17/11:00pm 12.4 8.5 6.9 69 2.6 NNW 17 28 9 15 1016.2 1016.2 0.0
17/10:30pm 12.5 8.5 6.8 68 2.7 NNW 17 28 9 15 1016.3 1016.3 0.0
17/10:00pm 12.4 8.0 6.7 68 2.7 NNW 19 33 10 18 1016.3 1016.3 0.0
17/09:30pm 12.3 8.7 6.8 69 2.6 NNW 15 30 8 16 1016.5 1016.5 0.0
17/09:00pm 12.7 8.7 6.7 67 2.9 NNW 17 28 9 15 1016.3 1016.3 0.0
17/08:30pm 13.1 9.1 6.5 64 3.2 NNW 17 32 9 17 1016.3 1016.3 0.0
17/08:00pm 13.3 8.9 6.6 64 3.2 NW 19 33 10 18 1016.6 1016.6 0.0
17/07:30pm 13.2 8.7 6.3 63 3.3 NNW 19 30 10 16 1016.5 1016.5 0.0
17/07:00pm 13.2 9.9 6.5 64 3.2 NNW 13 26 7 14 1016.4 1016.4 0.0
17/06:30pm 13.2 9.8 5.9 61 3.5 NNW 13 22 7 12 1016.5 1016.5 0.0
17/06:00pm 13.5 10.1 6.1 61 3.5 NNW 13 24 7 13 1016.2 1016.2 0.0
17/05:30pm 13.7 9.5 5.8 59 3.7 NW 17 32 9 17 1016.2 1016.2 0.0
17/05:00pm 13.5 9.3 5.9 60 3.6 NW 17 30 9 16 1016.3 1016.3 0.0
17/04:30pm 14.0 9.5 5.9 58 3.9 NW 19 30 10 16 1016.4 1016.4 0.0
17/04:00pm 13.8 10.1 6.2 60 3.6 NW 15 28 8 15 1016.5 1016.5 0.0
17/03:30pm 13.8 9.6 5.9 59 3.8 NW 17 37 9 20 1016.4 1016.4 0.0
17/03:00pm 13.9 10.1 5.8 58 3.8 NW 15 30 8 16 1016.3 1016.3 0.0
17/02:30pm 13.8 10.1 6.4 61 3.6 NW 15 24 8 13 1016.4 1016.4 0.0
17/02:00pm 13.7 9.5 5.8 59 3.7 NW 17 28 9 15 1016.6 1016.6 0.0
17/01:30pm 13.7 8.9 5.6 58 3.8 NW 20 35 11 19 1016.6 1016.6 0.0
17/01:00pm 14.8 10.4 6.6 58 4.0 NW 19 37 10 20 1016.9 1016.9 0.0
17/12:30pm 13.9 9.5 6.7 62 3.5 NW 19 28 10 15 1017.3 1017.3 0.0
17/12:00pm 14.1 9.8 6.9 62 3.5 NW 19 33 10 18 1017.5 1017.5 0.0
17/11:30am 13.4 8.8 6.5 63 3.3 NW 20 35 11 19 1017.9 1017.9 0.0
17/11:00am 13.6 9.6 6.7 63 3.3 NW 17 28 9 15 1018.1 1018.1 0.0
17/10:30am 12.8 8.7 6.4 65 3.1 WNW 17 32 9 17 1018.3 1018.3 0.0
17/10:00am 12.8 8.4 6.6 66 3.0 NW 19 33 10 18 1018.3 1018.3 0.0
17/09:30am 12.2 7.6 6.3 67 2.8 NW 20 32 11 17 1018.3 1018.3 0.0
17/09:00am 11.9 7.5 6.4 69 2.6 NW 19 37 10 20 1018.2 1018.2 3.6
17/08:30am 11.5 7.9 6.6 72 2.3 NW 15 24 8 13 1018.0 1018.0 3.6
17/08:00am 11.1 8.2 6.6 74 2.1 NW 11 24 6 13 1017.8 1017.8 3.6
17/07:30am 10.9 7.6 6.3 73 2.2 NNW 13 32 7 17 1017.5 1017.5 3.6
17/07:00am 10.8 7.1 6.2 73 2.1 NW 15 24 8 13 1017.4 1017.4 3.6
17/06:30am 11.0 7.3 6.2 72 2.2 NW 15 30 8 16 1017.1 1017.1 3.6
17/06:00am 11.1 7.1 6.5 73 2.2 NW 17 30 9 16 1016.8 1016.8 3.6
17/05:30am 11.3 7.2 6.2 71 2.4 NNW 17 32 9 17 1016.5 1016.5 3.6
17/05:00am 11.3 7.5 6.0 70 2.5 NW 15 28 8 15 1016.3 1016.3 3.6
17/04:30am 11.0 7.3 6.2 72 2.2 NW 15 26 8 14 1016.1 1016.1 3.6
17/04:00am 11.3 7.6 6.2 71 2.4 NW 15 26 8 14 1016.0 1016.0 3.6
17/03:30am 11.1 7.3 6.0 71 2.4 NW 15 24 8 13 1015.9 1015.9 3.6
17/03:00am 11.0 7.3 6.2 72 2.2 NW 15 26 8 14 1015.9 1015.9 3.6
17/02:30am 11.3 6.9 6.6 73 2.2 NW 19 33 10 18 1015.8 1015.8 3.6
17/02:00am 11.1 7.0 6.0 71 2.4 NW 17 30 9 16 1015.6 1015.6 3.6
17/01:30am 11.2 7.2 6.5 73 2.2 NW 17 28 9 15 1015.8 1015.8 3.6
17/01:00am 11.3 7.6 6.4 72 2.3 WNW 15 32 8 17 1015.8 1015.8 3.6
17/12:30am 11.3 7.3 6.6 73 2.2 NW 17 30 9 16 1015.7 1015.7 3.6
17/12:00am 11.4 7.8 6.7 73 2.2 NW 15 28 8 15 1015.6 1015.6 3.6
 
Date/Time
EST
Temp
°C
App
Temp
°C
Dew
Point
°C
Rel
Hum
%
Delta-T
°C
Wind Press
QNH
hPa
Press
MSL
hPa
Rain since
9am
mm
Dir  Spd
km/h
Gust
km/h
Spd
kts
Gust
kts
16/11:30pm 11.5 7.9 6.6 72 2.3 WNW 15 30 8 16 1015.4 1015.4 3.6
16/11:00pm 11.7 7.4 7.0 73 2.3 NW 19 30 10 16 1015.5 1015.5 3.6
16/10:30pm 11.6 8.1 7.1 74 2.2 NW 15 32 8 17 1015.4 1015.4 3.6
16/10:00pm 11.6 8.5 7.1 74 2.2 NW 13 22 7 12 1015.1 1015.1 3.6
16/09:30pm 11.8 7.8 6.5 70 2.5 WNW 17 30 9 16 1014.9 1014.9 3.6
16/09:00pm 11.9 7.6 7.0 72 2.4 WNW 19 33 10 18 1015.0 1015.0 3.6
16/08:30pm 11.9 8.0 7.2 73 2.3 WNW 17 32 9 17 1014.9 1014.9 3.6
16/08:00pm 12.4 8.2 7.5 72 2.4 WNW 19 33 10 18 1014.6 1014.6 3.6
16/07:30pm 12.8 8.8 6.8 67 2.9 WNW 17 30 9 16 1014.3 1014.3 3.6
16/07:00pm 12.8 9.5 7.9 72 2.4 W 15 30 8 16 1013.9 1013.9 3.6
16/06:30pm 13.0 9.6 7.7 70 2.6 WNW 15 37 8 20 1013.3 1013.3 3.6
16/06:00pm 12.8 9.6 8.3 74 2.2 WNW 15 32 8 17 1012.7 1012.7 3.6
16/05:30pm 11.0 9.5 9.3 89 0.9 WNW 7 15 4 8 1012.3 1012.3 3.6
16/05:00pm 12.8 11.4 9.4 80 1.7 W 7 13 4 7 1011.8 1011.8 1.2
16/04:30pm 13.0 11.2 9.6 80 1.7 W 9 17 5 9 1011.7 1011.7 1.0
16/04:00pm 14.0 10.9 9.0 72 2.5 NW 15 26 8 14 1011.2 1011.2 0.8
16/03:30pm 14.6 11.6 9.4 71 2.7 NW 15 28 8 15 1011.1 1011.1 0.8
16/03:00pm 13.5 11.1 10.1 80 1.8 NW 13 28 7 15 1011.3 1011.3 0.8
16/02:30pm 12.5 9.2 9.5 82 1.5 NW 17 32 9 17 1011.4 1011.4 0.8
16/02:00pm 13.3 10.7 9.5 78 1.9 WNW 13 24 7 13 1011.4 1011.4 0.6
16/01:30pm 12.9 9.8 9.0 77 2.0 NW 15 28 8 15 1011.6 1011.6 0.6
16/01:00pm 12.9 9.8 9.0 77 2.0 NW 15 26 8 14 1011.7 1011.7 0.6
16/12:30pm 12.8 8.7 7.7 71 2.5 WNW 19 35 10 19 1012.3 1012.3 0.6
16/12:00pm 13.2 9.9 9.5 78 1.9 NW 17 24 9 13 1012.6 1012.6 0.6
16/11:30am 13.0 10.1 9.6 80 1.7 WNW 15 24 8 13 1012.9 1012.9 0.6
16/11:00am 11.8 8.4 9.2 84 1.3 WNW 17 30 9 16 1013.2 1013.2 0.6
16/10:30am 14.8 11.1 8.1 64 3.4 NW 17 28 9 15 1012.9 1012.9 0.0
16/10:00am 13.8 10.2 8.2 69 2.8 NW 17 28 9 15 1013.0 1013.0 0.0
16/09:30am 12.4 9.7 8.9 79 1.8 WNW 13 26 7 14 1013.0 1013.0 0.0
16/09:00am 14.2 10.0 8.2 67 3.0 NW 20 33 11 18 1012.6 1012.6 1.0
16/08:30am 13.4 10.8 9.5 77 2.0 NNW 13 20 7 11 1012.3 1012.3 1.0
16/08:00am 13.6 10.5 8.7 72 2.5 NW 15 30 8 16 1012.0 1012.0 1.0
16/07:30am 12.6 9.9 8.9 78 1.9 NNW 13 24 7 13 1011.8 1011.8 1.0
16/07:00am 12.5 9.0 8.8 78 1.9 NNW 17 33 9 18 1011.5 1011.5 1.0
16/06:30am 12.4 9.2 8.5 77 1.9 NNW 15 24 8 13 1011.2 1011.2 1.0
16/06:00am 12.2 8.6 8.5 78 1.8 NNW 17 24 9 13 1010.8 1010.8 1.0
16/05:30am 12.0 9.2 8.5 79 1.7 NNW 13 22 7 12 1010.6 1010.6 1.0
16/05:00am 12.1 9.7 8.8 80 1.7 NNW 11 19 6 10 1010.5 1010.5 1.0
16/04:30am 12.1 10.2 9.1 82 1.5 NNW 9 17 5 9 1010.4 1010.4 1.0
16/04:00am 12.4 10.2 9.2 81 1.6 NNW 11 20 6 11 1010.3 1010.3 1.0
16/03:30am 13.8 9.9 7.3 65 3.2 NW 17 28 9 15 1010.2 1010.2 1.0
16/03:00am 14.1 10.8 7.9 66 3.1 NW 15 26 8 14 1010.3 1010.3 1.0
16/02:30am 13.9 10.7 8.3 69 2.8 NW 15 26 8 14 1010.4 1010.4 1.0
16/02:00am 13.8 10.9 8.0 68 2.9 NW 13 26 7 14 1010.4 1010.4 1.0
16/01:30am 13.9 10.2 8.1 68 2.9 NW 17 26 9 14 1010.6 1010.6 1.0
16/01:00am 14.0 10.5 8.8 71 2.6 WNW 17 28 9 15 1010.5 1010.5 1.0
16/12:30am 14.0 10.2 9.2 73 2.5 WNW 19 35 10 19 1010.2 1010.2 1.0
16/12:00am 13.8 10.4 9.3 74 2.3 WNW 17 28 9 15 1010.5 1010.5 1.0
 
Date/Time
EST
Temp
°C
App
Temp
°C
Dew
Point
°C
Rel
Hum
%
Delta-T
°C
Wind Press
QNH
hPa
Press
MSL
hPa
Rain since
9am
mm
Dir  Spd
km/h
Gust
km/h
Spd
kts
Gust
kts
15/11:30pm 13.4 10.3 10.2 81 1.7 NW 17 33 9 18 1010.4 1010.4 1.0
15/11:00pm 12.8 9.1 10.0 83 1.4 NW 20 39 11 21 1010.4 1010.4 1.0
15/10:30pm 14.7 10.6 11.3 80 1.8 WNW 24 59 13 32 1009.9 1009.8 0.6
15/10:00pm 16.2 13.5 11.8 75 2.4 NW 17 28 9 15 1008.7 1008.7 0.2
15/09:30pm 16.8 12.4 10.4 66 3.4 NW 24 37 13 20 1008.4 1008.4 0.2
15/09:00pm 15.6 12.2 11.2 75 2.4 NNW 20 39 11 21 1007.9 1007.9 0.2
15/08:30pm 17.7 13.3 8.8 56 4.6 NNW 22 39 12 21 1007.4 1007.4 0.2
15/08:00pm 17.5 13.5 9.2 58 4.3 NNW 20 37 11 20 1007.3 1007.3 0.2
15/07:30pm 17.6 14.2 9.0 57 4.5 NNW 17 32 9 17 1007.2 1007.2 0.2
15/07:00pm 18.0 13.9 8.8 55 4.8 NNW 20 32 11 17 1007.3 1007.3 0.2

Other formats

Comma delimited format used in spreadsheet applications
http://www.bom.gov.au/fwo/IDV60801/IDV60801.94876.axf

JavaScript Object Notation format (JSON) in row-major order
http://www.bom.gov.au/fwo/IDV60801/IDV60801.94876.json

Data quality

Most of these data are generated automatically and are frequently updated. Quality checks on data are not normally performed. It is possible for incorrect values to appear. Refer to information at About Latest Weather Observations and please check the disclaimer before using these data.